Time,TemperatureF,DewpointF,PressureIn,WindDirection,WindDirectionDegrees,WindSpeedMPH,WindSpeedGustMPH,Humidity,HourlyPrecipIn,Conditions,Clouds,dailyrainin,SoftwareType,DateUTC
2013-08-14 00:08:00,63.1,59.0,30.11,NE,42,2.0,4.0,85,0.00,,,0.00,weatherlink.com 1.10,2013-08-14 05:08:00,
2013-08-14 00:23:00,62.8,58.0,30.11,NE,42,1.0,3.0,85,0.00,,,0.00,weatherlink.com 1.10,2013-08-14 05:23:00,
2013-08-14 00:38:00,62.2,58.0,30.11,NE,42,1.0,3.0,86,0.00,,,0.00,weatherlink.com 1.10,2013-08-14 05:38:00,
2013-08-14 00:53:00,61.7,58.0,30.11,NE,42,2.0,4.0,86,0.00,,,0.00,weatherlink.com 1.10,2013-08-14 05:53:00,
2013-08-14 01:08:00,61.3,57.0,30.11,NE,42,2.0,4.0,87,0.00,,,0.00,weatherlink.com 1.10,2013-08-14 06:08:00,
2013-08-14 01:23:00,60.8,57.0,30.11,NE,42,2.0,4.0,87,0.00,,,0.00,weatherlink.com 1.10,2013-08-14 06:23:00,
2013-08-14 01:38:00,60.3,57.0,30.11,NE,42,2.0,4.0,88,0.00,,,0.00,weatherlink.com 1.10,2013-08-14 06:38:00,
2013-08-14 01:53:00,59.9,57.0,30.11,NE,42,3.0,3.0,89,0.00,,,0.00,weatherlink.com 1.10,2013-08-14 06:53:00,
2013-08-14 02:08:00,59.5,56.0,30.11,NE,42,1.0,3.0,89,0.00,,,0.00,weatherlink.com 1.10,2013-08-14 07:08:00,
2013-08-14 02:23:00,59.0,56.0,30.11,NE,42,2.0,3.0,90,0.00,,,0.00,weatherlink.com 1.10,2013-08-14 07:23:00,
2013-08-14 02:38:00,58.7,56.0,30.11,NE,42,1.0,3.0,90,0.00,,,0.00,weatherlink.com 1.10,2013-08-14 07:38:00,
2013-08-14 02:53:00,58.3,56.0,30.11,NE,42,1.0,3.0,90,0.00,,,0.00,weatherlink.com 1.10,2013-08-14 07:53:00,
2013-08-14 03:08:00,57.8,55.0,30.12,NE,42,0.0,1.0,91,0.00,,,0.00,weatherlink.com 1.10,2013-08-14 08:08:00,
2013-08-14 03:23:00,57.2,55.0,30.12,NE,42,0.0,0.0,92,0.00,,,0.00,weatherlink.com 1.10,2013-08-14 08:23:00,
2013-08-14 03:38:00,56.7,55.0,30.12,NE,42,1.0,2.0,93,0.00,,,0.00,weatherlink.com 1.10,2013-08-14 08:38:00,
2013-08-14 03:53:00,56.4,55.0,30.12,NE,42,0.0,1.0,93,0.00,,,0.00,weatherlink.com 1.10,2013-08-14 08:53:00,
2013-08-14 04:08:00,55.9,54.0,30.12,NE,42,0.0,2.0,93,0.00,,,0.00,weatherlink.com 1.10,2013-08-14 09:08:00,
2013-08-14 04:23:00,55.8,54.0,30.13,NE,42,0.0,2.0,94,0.00,,,0.00,weatherlink.com 1.10,2013-08-14 09:23:00,
2013-08-14 04:38:00,55.3,54.0,30.13,NE,42,2.0,2.0,94,0.00,,,0.00,weatherlink.com 1.10,2013-08-14 09:38:00,
2013-08-14 04:53:00,55.0,54.0,30.13,NE,42,1.0,2.0,95,0.00,,,0.00,weatherlink.com 1.10,2013-08-14 09:53:00,
2013-08-14 05:08:00,54.6,53.0,30.14,NE,42,0.0,2.0,94,0.00,,,0.00,weatherlink.com 1.10,2013-08-14 10:08:00,
2013-08-14 05:23:00,54.3,53.0,30.14,NE,42,0.0,1.0,95,0.00,,,0.00,weatherlink.com 1.10,2013-08-14 10:23:00,
2013-08-14 05:38:00,54.1,53.0,30.14,NE,42,0.0,1.0,95,0.00,,,0.00,weatherlink.com 1.10,2013-08-14 10:38:00,
2013-08-14 05:53:00,53.7,52.0,30.14,NE,42,0.0,1.0,95,0.00,,,0.00,weatherlink.com 1.10,2013-08-14 10:53:00,
2013-08-14 06:08:00,53.3,52.0,30.14,NE,42,1.0,2.0,95,0.00,,,0.00,weatherlink.com 1.10,2013-08-14 11:08:00,
2013-08-14 06:24:00,53.2,52.0,30.15,NE,42,0.0,2.0,96,0.00,,,0.00,weatherlink.com 1.10,2013-08-14 11:24:00,
2013-08-14 06:39:00,53.3,52.0,30.16,NE,42,0.0,2.0,96,0.00,,,0.00,weatherlink.com 1.10,2013-08-14 11:39:00,
2013-08-14 06:54:00,53.9,53.0,30.16,NE,42,0.0,1.0,96,0.00,,,0.00,weatherlink.com 1.10,2013-08-14 11:54:00,
2013-08-14 07:09:00,55.1,54.0,30.16,NE,42,1.0,2.0,95,0.00,,,0.00,weatherlink.com 1.10,2013-08-14 12:09:00,
2013-08-14 07:24:00,56.3,54.0,30.16,NE,42,0.0,3.0,93,0.00,,,0.00,weatherlink.com 1.10,2013-08-14 12:24:00,
2013-08-14 07:39:00,57.5,55.0,30.17,NE,42,0.0,3.0,90,0.00,,,0.00,weatherlink.com 1.10,2013-08-14 12:39:00,
2013-08-14 07:54:00,58.7,55.0,30.17,ESE,105,2.0,3.0,87,0.00,,,0.00,weatherlink.com 1.10,2013-08-14 12:54:00,
2013-08-14 08:09:00,59.8,55.0,30.17,East,80,1.0,4.0,85,0.00,,,0.00,weatherlink.com 1.10,2013-08-14 13:09:00,
2013-08-14 08:24:00,61.2,56.0,30.18,East,88,3.0,6.0,82,0.00,,,0.00,weatherlink.com 1.10,2013-08-14 13:24:00,
2013-08-14 08:39:00,62.8,56.0,30.18,SE,133,0.0,4.0,77,0.00,,,0.00,weatherlink.com 1.10,2013-08-14 13:39:00,
2013-08-14 08:54:00,64.5,54.0,30.18,SE,135,7.0,9.0,69,0.00,,,0.00,weatherlink.com 1.10,2013-08-14 13:54:00,
2013-08-14 09:09:00,65.0,53.0,30.18,SE,144,5.0,11.0,66,0.00,,,0.00,weatherlink.com 1.10,2013-08-14 14:09:00,
2013-08-14 09:24:00,66.2,54.0,30.18,SE,134,5.0,10.0,64,0.00,,,0.00,weatherlink.com 1.10,2013-08-14 14:24:00,
2013-08-14 09:39:00,66.9,53.0,30.18,East,88,5.0,9.0,61,0.00,,,0.00,weatherlink.com 1.10,2013-08-14 14:39:00,
2013-08-14 09:54:00,67.6,54.0,30.18,SE,138,3.0,8.0,62,0.00,,,0.00,weatherlink.com 1.10,2013-08-14 14:54:00,
2013-08-14 10:10:00,68.4,52.0,30.18,NE,40,4.0,7.0,56,0.00,,,0.00,weatherlink.com 1.10,2013-08-14 15:10:00,
2013-08-14 10:25:00,69.4,53.0,30.19,ESE,117,7.0,8.0,56,0.00,,,0.00,weatherlink.com 1.10,2013-08-14 15:25:00,
2013-08-14 10:40:00,70.0,51.0,30.18,ENE,73,4.0,10.0,52,0.00,,,0.00,weatherlink.com 1.10,2013-08-14 15:40:00,
2013-08-14 10:55:00,69.8,50.0,30.18,WNW,290,2.0,11.0,50,0.00,,,0.00,weatherlink.com 1.10,2013-08-14 15:55:00,
2013-08-14 11:10:00,70.9,52.0,30.18,ESE,115,9.0,12.0,52,0.00,,,0.00,weatherlink.com 1.10,2013-08-14 16:10:00,
2013-08-14 11:40:00,71.1,51.0,30.18,SSE,160,4.0,10.0,49,0.00,,,0.00,weatherlink.com 1.10,2013-08-14 16:40:00,
2013-08-14 12:10:00,71.2,51.0,30.18,NNE,20,2.0,12.0,49,0.00,,,0.00,weatherlink.com 1.10,2013-08-14 17:10:00,
2013-08-14 12:25:00,71.2,51.0,30.17,North,355,4.0,13.0,49,0.00,,,0.00,weatherlink.com 1.10,2013-08-14 17:25:00,
2013-08-14 12:40:00,72.0,51.0,30.17,ESE,109,1.0,9.0,47,0.00,,,0.00,weatherlink.com 1.10,2013-08-14 17:40:00,
2013-08-14 12:55:00,71.9,52.0,30.16,NNE,31,3.0,11.0,50,0.00,,,0.00,weatherlink.com 1.10,2013-08-14 17:55:00,
2013-08-14 13:10:00,72.3,53.0,30.15,North,11,2.0,6.0,50,0.00,,,0.00,weatherlink.com 1.10,2013-08-14 18:10:00,
2013-08-14 13:25:00,73.4,51.0,30.15,NNE,24,8.0,13.0,45,0.00,,,0.00,weatherlink.com 1.10,2013-08-14 18:25:00,
2013-08-14 13:40:00,72.4,50.0,30.15,NNE,29,8.0,10.0,45,0.00,,,0.00,weatherlink.com 1.10,2013-08-14 18:40:00,
2013-08-14 13:55:00,74.0,50.0,30.14,NNE,32,6.0,11.0,43,0.00,,,0.00,weatherlink.com 1.10,2013-08-14 18:55:00,
2013-08-14 14:25:00,74.1,50.0,30.14,North,351,4.0,16.0,43,0.00,,,0.00,weatherlink.com 1.10,2013-08-14 19:25:00,
2013-08-14 14:40:00,75.0,50.0,30.14,North,355,1.0,12.0,42,0.00,,,0.00,weatherlink.com 1.10,2013-08-14 19:40:00,
2013-08-14 15:10:00,74.7,52.0,30.13,East,100,7.0,13.0,45,0.00,,,0.00,weatherlink.com 1.10,2013-08-14 20:10:00,
2013-08-14 15:25:00,74.9,51.0,30.12,SSE,162,1.0,9.0,43,0.00,,,0.00,weatherlink.com 1.10,2013-08-14 20:25:00,
2013-08-14 15:55:00,73.3,51.0,30.12,NNE,17,7.0,12.0,46,0.00,,,0.00,weatherlink.com 1.10,2013-08-14 20:55:00,
2013-08-14 16:10:00,75.0,51.0,30.11,East,80,1.0,10.0,43,0.00,,,0.00,weatherlink.com 1.10,2013-08-14 21:10:00,
2013-08-14 16:25:00,73.9,52.0,30.12,NNE,32,7.0,14.0,47,0.00,,,0.00,weatherlink.com 1.10,2013-08-14 21:25:00,
2013-08-14 16:40:00,74.2,51.0,30.11,NE,36,4.0,8.0,45,0.00,,,0.00,weatherlink.com 1.10,2013-08-14 21:40:00,
2013-08-14 16:55:00,74.0,51.0,30.11,ENE,63,10.0,12.0,45,0.00,,,0.00,weatherlink.com 1.10,2013-08-14 21:55:00,
2013-08-14 17:10:00,73.0,51.0,30.11,NE,34,5.0,11.0,46,0.00,,,0.00,weatherlink.com 1.10,2013-08-14 22:10:00,
2013-08-14 17:25:00,72.8,51.0,30.11,ENE,57,2.0,10.0,47,0.00,,,0.00,weatherlink.com 1.10,2013-08-14 22:25:00,
2013-08-14 17:40:00,72.9,51.0,30.11,NNE,24,6.0,9.0,47,0.00,,,0.00,weatherlink.com 1.10,2013-08-14 22:40:00,
2013-08-14 17:55:00,72.3,51.0,30.10,ENE,57,4.0,10.0,48,0.00,,,0.00,weatherlink.com 1.10,2013-08-14 22:55:00,
2013-08-14 18:10:00,72.2,51.0,30.10,NNE,31,4.0,12.0,48,0.00,,,0.00,weatherlink.com 1.10,2013-08-14 23:10:00,
2013-08-14 18:25:00,71.3,52.0,30.09,ENE,61,4.0,8.0,50,0.00,,,0.00,weatherlink.com 1.10,2013-08-14 23:25:00,
2013-08-14 18:40:00,71.0,51.0,30.09,ENE,62,9.0,10.0,50,0.00,,,0.00,weatherlink.com 1.10,2013-08-14 23:40:00,
2013-08-14 18:55:00,70.6,51.0,30.10,ENE,62,7.0,8.0,51,0.00,,,0.00,weatherlink.com 1.10,2013-08-14 23:55:00,
2013-08-14 19:10:00,69.8,51.0,30.10,NE,46,2.0,5.0,52,0.00,,,0.00,weatherlink.com 1.10,2013-08-15 00:10:00,
2013-08-14 19:25:00,69.2,51.0,30.10,ENE,67,3.0,5.0,53,0.00,,,0.00,weatherlink.com 1.10,2013-08-15 00:25:00,
2013-08-14 19:40:00,68.6,52.0,30.10,ENE,68,3.0,4.0,55,0.00,,,0.00,weatherlink.com 1.10,2013-08-15 00:40:00,
2013-08-14 19:56:00,67.9,52.0,30.10,ENE,58,1.0,3.0,57,0.00,,,0.00,weatherlink.com 1.10,2013-08-15 00:56:00,
2013-08-14 20:10:00,67.2,52.0,30.10,SE,130,0.0,2.0,59,0.00,,,0.00,weatherlink.com 1.10,2013-08-15 01:10:00,
2013-08-14 20:25:00,66.1,53.0,30.10,NE,51,1.0,3.0,63,0.00,,,0.00,weatherlink.com 1.10,2013-08-15 01:25:00,
2013-08-14 20:40:00,65.3,53.0,30.10,NE,55,1.0,3.0,64,0.00,,,0.00,weatherlink.com 1.10,2013-08-15 01:40:00,
2013-08-14 20:55:00,64.4,53.0,30.11,ENE,59,0.0,3.0,66,0.00,,,0.00,weatherlink.com 1.10,2013-08-15 01:55:00,
2013-08-14 21:11:00,63.5,53.0,30.11,East,81,1.0,2.0,68,0.00,,,0.00,weatherlink.com 1.10,2013-08-15 02:11:00,
2013-08-14 21:26:00,62.7,53.0,30.11,East,101,2.0,2.0,70,0.00,,,0.00,weatherlink.com 1.10,2013-08-15 02:26:00,
2013-08-14 21:41:00,62.3,52.0,30.12,East,101,0.0,2.0,70,0.00,,,0.00,weatherlink.com 1.10,2013-08-15 02:41:00,
2013-08-14 21:56:00,61.5,52.0,30.12,East,101,1.0,3.0,71,0.00,,,0.00,weatherlink.com 1.10,2013-08-15 02:56:00,
2013-08-14 22:11:00,61.3,52.0,30.12,East,101,1.0,2.0,72,0.00,,,0.00,weatherlink.com 1.10,2013-08-15 03:11:00,
2013-08-14 22:26:00,60.9,53.0,30.13,East,101,0.0,1.0,74,0.00,,,0.00,weatherlink.com 1.10,2013-08-15 03:26:00,
2013-08-14 22:41:00,60.5,53.0,30.13,East,101,0.0,1.0,75,0.00,,,0.00,weatherlink.com 1.10,2013-08-15 03:41:00,
2013-08-14 22:56:00,60.2,53.0,30.13,East,101,0.0,2.0,76,0.00,,,0.00,weatherlink.com 1.10,2013-08-15 03:56:00,
2013-08-14 23:11:00,59.8,53.0,30.14,East,101,0.0,1.0,77,0.00,,,0.00,weatherlink.com 1.10,2013-08-15 04:11:00,
2013-08-14 23:26:00,59.4,52.0,30.13,East,101,0.0,1.0,77,0.00,,,0.00,weatherlink.com 1.10,2013-08-15 04:26:00,
2013-08-14 23:41:00,59.6,53.0,30.13,East,101,1.0,2.0,78,0.00,,,0.00,weatherlink.com 1.10,2013-08-15 04:41:00,
2013-08-14 23:56:00,59.5,53.0,30.14,East,101,0.0,2.0,78,0.00,,,0.00,weatherlink.com 1.10,2013-08-15 04:56:00,